PWSweather.com
Personal Weather Stations
Station Observations
WSLEMBEKE
Flanders, LembekeBE 9971

FlandersLembekeBE 9971

Lat: 51.1917315, Lon: 3.6361177999999654

Elevation: 21

Station Type: Davis Vantage Pro2

Latest ConditionsUpdated 6:53:59 PM GMT+01:01 Sunday, May 19, 2019
Currently Today's Max Today's Min Today's Average
Temperature 55.2°F12.9°C 60.4°F15.8°C 54.1°F12.3°C 56.3°F13.5°C
Dew Point 51.4°F10.8°C 56.5°F13.6°C 50.0°F10.0°C 53.1°F11.7°C
Winds 5.1 mph N8.2 kmh N 8.9 mph -14.3 kmh - - 3.9 mph 6.3 kmh
Wind Gusts 10.5 mph16.9 kmh 20.1 mph32.3 kmh - -
Humidity 87% 93% 83% 89%
Pressure 29.78 in1008.5 mb 29.79 in1008.8 mb 29.74 in1007.1 mb -
Precipitation - 0.12 in3.0 mm - -
Hour Temp Dew Point Humidity Winds Wind Gusts Pressure Precip Precip Rate Daily Precip Total
06:53 PM 55.2°F12.9°C 51.4°F10.8°C 87% 5.1 mph N8.2 kmh N 10.5 mph16.9 kmh 29.78 in1008.5 mb 0.00 in0.0 mm 0.00 in0.0 mm 0.12 in3.0 mm
06:48 PM 55.4°F13.0°C 51.6°F10.9°C 87% 7.2 mph NNE11.6 kmh NNE 14.8 mph23.8 kmh 29.78 in1008.5 mb 0.00 in0.0 mm 0.00 in0.0 mm 0.12 in3.0 mm
06:43 PM 55.6°F13.1°C 51.8°F11.0°C 87% 5.1 mph NNE8.2 kmh NNE 13.9 mph22.4 kmh 29.78 in1008.5 mb 0.00 in0.0 mm 0.00 in0.0 mm 0.12 in3.0 mm
06:38 PM 55.8°F13.2°C 52.0°F11.1°C 87% 5.1 mph NNW8.2 kmh NNW 10.5 mph16.9 kmh 29.78 in1008.5 mb 0.00 in0.0 mm 0.00 in0.0 mm 0.12 in3.0 mm
06:33 PM 55.9°F13.3°C 52.2°F11.2°C 87% 5.1 mph NW8.2 kmh NW 9.6 mph15.4 kmh 29.78 in1008.5 mb 0.00 in0.0 mm 0.00 in0.0 mm 0.12 in3.0 mm
06:28 PM 56.1°F13.4°C 52.3°F11.3°C 87% 4.5 mph NNE7.2 kmh NNE 9.6 mph15.4 kmh 29.78 in1008.5 mb 0.00 in0.0 mm 0.00 in0.0 mm 0.12 in3.0 mm
06:23 PM 55.9°F13.3°C 52.2°F11.2°C 87% 4.9 mph N7.9 kmh N 10.5 mph16.9 kmh 29.77 in1008.1 mb 0.00 in0.0 mm 0.00 in0.0 mm 0.12 in3.0 mm
06:18 PM 55.9°F13.3°C 51.8°F11.0°C 86% 5.4 mph N8.7 kmh N 13.9 mph22.4 kmh 29.77 in1008.1 mb 0.00 in0.0 mm 0.00 in0.0 mm 0.12 in3.0 mm
06:13 PM 56.3°F13.5°C 52.2°F11.2°C 86% 5.6 mph N9.0 kmh N 13.9 mph22.4 kmh 29.77 in1008.1 mb 0.00 in0.0 mm 0.00 in0.0 mm 0.12 in3.0 mm
06:08 PM 56.5°F13.6°C 52.0°F11.1°C 85% 5.8 mph NNW9.3 kmh NNW 12.8 mph20.6 kmh 29.77 in1008.1 mb 0.00 in0.0 mm 0.00 in0.0 mm 0.12 in3.0 mm
06:03 PM 56.7°F13.7°C 52.2°F11.2°C 85% 6.3 mph WNW10.1 kmh WNW 11.6 mph18.7 kmh 29.77 in1008.1 mb 0.00 in0.0 mm 0.00 in0.0 mm 0.12 in3.0 mm
05:58 PM 56.8°F13.8°C 52.0°F11.1°C 84% 7.2 mph 11.6 kmh 14.8 mph23.8 kmh 29.77 in1008.1 mb 0.00 in0.0 mm 0.00 in0.0 mm 0.12 in3.0 mm
05:53 PM 57.2°F14.0°C 52.3°F11.3°C 84% 5.4 mph N8.7 kmh N 13.9 mph22.4 kmh 29.77 in1008.1 mb 0.00 in0.0 mm 0.00 in0.0 mm 0.12 in3.0 mm
05:48 PM 57.6°F14.2°C 52.5°F11.4°C 83% 6.5 mph NNE10.5 kmh NNE 11.6 mph18.7 kmh 29.77 in1008.1 mb 0.00 in0.0 mm 0.00 in0.0 mm 0.12 in3.0 mm
05:43 PM 57.7°F14.3°C 52.7°F11.5°C 83% 5.1 mph 8.2 kmh 13.9 mph22.4 kmh 29.76 in1007.8 mb 0.00 in0.0 mm 0.00 in0.0 mm 0.12 in3.0 mm
05:38 PM 57.7°F14.3°C 52.9°F11.6°C 84% 7.4 mph NNW11.9 kmh NNW 14.8 mph23.8 kmh 29.77 in1008.1 mb 0.00 in0.0 mm 0.00 in0.0 mm 0.12 in3.0 mm
05:33 PM 57.9°F14.4°C 53.1°F11.7°C 84% 7.2 mph NW11.6 kmh NW 13.9 mph22.4 kmh 29.77 in1008.1 mb 0.00 in0.0 mm 0.00 in0.0 mm 0.12 in3.0 mm
05:28 PM 57.7°F14.3°C 53.2°F11.8°C 85% 6.7 mph WNW10.8 kmh WNW 12.8 mph20.6 kmh 29.77 in1008.1 mb 0.00 in0.0 mm 0.00 in0.0 mm 0.12 in3.0 mm
05:23 PM 57.2°F14.0°C 52.7°F11.5°C 85% 4.0 mph N6.4 kmh N 13.9 mph22.4 kmh 29.77 in1008.1 mb 0.00 in0.0 mm 0.00 in0.0 mm 0.12 in3.0 mm
05:18 PM 57.0°F13.9°C 52.5°F11.4°C 85% 6.3 mph 10.1 kmh 15.9 mph25.6 kmh 29.77 in1008.1 mb 0.00 in0.0 mm 0.00 in0.0 mm 0.12 in3.0 mm
05:13 PM 57.2°F14.0°C 52.7°F11.5°C 85% 6.7 mph NNW10.8 kmh NNW 11.6 mph18.7 kmh 29.77 in1008.1 mb 0.00 in0.0 mm 0.00 in0.0 mm 0.12 in3.0 mm
05:08 PM 57.6°F14.2°C 53.4°F11.9°C 86% 4.9 mph NW7.9 kmh NW 9.6 mph15.4 kmh 29.77 in1008.1 mb 0.00 in0.0 mm 0.00 in0.0 mm 0.12 in3.0 mm
05:03 PM 57.7°F14.3°C 53.6°F12.0°C 86% 5.4 mph 8.7 kmh 12.8 mph20.6 kmh 29.78 in1008.5 mb 0.00 in0.0 mm 0.00 in0.0 mm 0.12 in3.0 mm
04:58 PM 57.9°F14.4°C 53.8°F12.1°C 86% 3.8 mph NW6.1 kmh NW 9.6 mph15.4 kmh 29.78 in1008.5 mb 0.00 in0.0 mm 0.00 in0.0 mm 0.12 in3.0 mm
04:53 PM 57.7°F14.3°C 53.6°F12.0°C 86% 4.3 mph NW6.9 kmh NW 10.5 mph16.9 kmh 29.78 in1008.5 mb 0.00 in0.0 mm 0.00 in0.0 mm 0.12 in3.0 mm
04:48 PM 57.7°F14.3°C 54.0°F12.2°C 87% 6.9 mph N11.1 kmh N 13.9 mph22.4 kmh 29.77 in1008.1 mb 0.00 in0.0 mm 0.00 in0.0 mm 0.12 in3.0 mm
04:43 PM 57.6°F14.2°C 53.8°F12.1°C 87% 5.6 mph W9.0 kmh W 14.8 mph23.8 kmh 29.77 in1008.1 mb 0.00 in0.0 mm 0.00 in0.0 mm 0.12 in3.0 mm
04:38 PM 57.4°F14.1°C 53.6°F12.0°C 87% 8.9 mph N14.3 kmh N 14.8 mph23.8 kmh 29.77 in1008.1 mb 0.00 in0.0 mm 0.00 in0.0 mm 0.12 in3.0 mm
04:33 PM 57.6°F14.2°C 53.8°F12.1°C 87% 5.1 mph NNW8.2 kmh NNW 14.8 mph23.8 kmh 29.77 in1008.1 mb 0.00 in0.0 mm 0.00 in0.0 mm 0.12 in3.0 mm
04:28 PM 57.4°F14.1°C 53.6°F12.0°C 87% 2.7 mph WNW4.3 kmh WNW 14.8 mph23.8 kmh 29.77 in1008.1 mb 0.00 in0.0 mm 0.00 in0.0 mm 0.12 in3.0 mm
04:23 PM 57.6°F14.2°C 53.8°F12.1°C 87% 5.4 mph NE8.7 kmh NE 14.8 mph23.8 kmh 29.77 in1008.1 mb 0.00 in0.0 mm 0.00 in0.0 mm 0.12 in3.0 mm
04:18 PM 57.7°F14.3°C 54.0°F12.2°C 87% 6.3 mph NNW10.1 kmh NNW 13.9 mph22.4 kmh 29.77 in1008.1 mb 0.00 in0.0 mm 0.00 in0.0 mm 0.12 in3.0 mm
04:13 PM 57.9°F14.4°C 54.1°F12.3°C 87% 5.1 mph N8.2 kmh N 11.6 mph18.7 kmh 29.77 in1008.1 mb 0.00 in0.0 mm 0.00 in0.0 mm 0.12 in3.0 mm
04:08 PM 58.1°F14.5°C 54.3°F12.4°C 87% 3.4 mph NW5.5 kmh NW 11.6 mph18.7 kmh 29.77 in1008.1 mb 0.00 in0.0 mm 0.00 in0.0 mm 0.12 in3.0 mm
04:03 PM 57.9°F14.4°C 53.8°F12.1°C 86% 6.3 mph NW10.1 kmh NW 12.8 mph20.6 kmh 29.77 in1008.1 mb 0.00 in0.0 mm 0.00 in0.0 mm 0.12 in3.0 mm
03:58 PM 58.3°F14.6°C 54.5°F12.5°C 87% 6.5 mph NW10.5 kmh NW 9.6 mph15.4 kmh 29.77 in1008.1 mb 0.00 in0.0 mm 0.00 in0.0 mm 0.12 in3.0 mm
03:53 PM 58.3°F14.6°C 54.5°F12.5°C 87% 4.0 mph 6.4 kmh 9.6 mph15.4 kmh 29.77 in1008.1 mb 0.00 in0.0 mm 0.00 in0.0 mm 0.12 in3.0 mm
03:48 PM 58.3°F14.6°C 54.1°F12.3°C 86% 7.2 mph NW11.6 kmh NW 12.8 mph20.6 kmh 29.78 in1008.5 mb 0.00 in0.0 mm 0.00 in0.0 mm 0.12 in3.0 mm
03:43 PM 58.5°F14.7°C 54.3°F12.4°C 86% 6.7 mph NW10.8 kmh NW 13.9 mph22.4 kmh 29.77 in1008.1 mb 0.00 in0.0 mm 0.00 in0.0 mm 0.12 in3.0 mm
03:38 PM 58.6°F14.8°C 54.5°F12.5°C 86% 6.5 mph NW10.5 kmh NW 15.9 mph25.6 kmh 29.77 in1008.1 mb 0.00 in0.0 mm 0.00 in0.0 mm 0.12 in3.0 mm
03:33 PM 58.6°F14.8°C 54.5°F12.5°C 86% 5.6 mph NNW9.0 kmh NNW 14.8 mph23.8 kmh 29.77 in1008.1 mb 0.00 in0.0 mm 0.00 in0.0 mm 0.12 in3.0 mm
03:28 PM 58.5°F14.7°C 54.3°F12.4°C 86% 6.7 mph N10.8 kmh N 15.9 mph25.6 kmh 29.77 in1008.1 mb 0.00 in0.0 mm 0.00 in0.0 mm 0.12 in3.0 mm
03:23 PM 58.8°F14.9°C 54.7°F12.6°C 86% 6.5 mph N10.5 kmh N 14.8 mph23.8 kmh 29.77 in1008.1 mb 0.00 in0.0 mm 0.00 in0.0 mm 0.12 in3.0 mm
03:18 PM 59.4°F15.2°C 55.2°F12.9°C 86% 4.7 mph WNW7.6 kmh WNW 11.6 mph18.7 kmh 29.77 in1008.1 mb 0.00 in0.0 mm 0.00 in0.0 mm 0.12 in3.0 mm
03:13 PM 59.5°F15.3°C 55.4°F13.0°C 86% 8.7 mph NNW14.0 kmh NNW 15.9 mph25.6 kmh 29.76 in1007.8 mb 0.00 in0.0 mm 0.00 in0.0 mm 0.12 in3.0 mm
03:08 PM 59.9°F15.5°C 55.4°F13.0°C 85% 8.7 mph NNE14.0 kmh NNE 17.0 mph27.4 kmh 29.77 in1008.1 mb 0.00 in0.0 mm 0.00 in0.0 mm 0.12 in3.0 mm
03:03 PM 60.4°F15.8°C 55.9°F13.3°C 85% 8.5 mph WNW13.7 kmh WNW 14.8 mph23.8 kmh 29.77 in1008.1 mb 0.00 in0.0 mm 0.00 in0.0 mm 0.12 in3.0 mm
02:58 PM 60.3°F15.7°C 55.8°F13.2°C 85% 6.5 mph 10.5 kmh 11.6 mph18.7 kmh 29.77 in1008.1 mb 0.00 in0.0 mm 0.00 in0.0 mm 0.12 in3.0 mm
02:53 PM 60.3°F15.7°C 56.1°F13.4°C 86% 7.4 mph N11.9 kmh N 14.8 mph23.8 kmh 29.77 in1008.1 mb 0.00 in0.0 mm 0.00 in0.0 mm 0.12 in3.0 mm
02:48 PM 60.1°F15.6°C 55.9°F13.3°C 86% 6.3 mph 10.1 kmh 20.1 mph32.3 kmh 29.77 in1008.1 mb 0.00 in0.0 mm 0.00 in0.0 mm 0.12 in3.0 mm
02:43 PM 60.3°F15.7°C 56.1°F13.4°C 86% 6.7 mph NW10.8 kmh NW 12.8 mph20.6 kmh 29.77 in1008.1 mb 0.00 in0.0 mm 0.00 in0.0 mm 0.12 in3.0 mm
02:38 PM 60.3°F15.7°C 56.1°F13.4°C 86% 6.5 mph 10.5 kmh 12.8 mph20.6 kmh 29.77 in1008.1 mb 0.00 in0.0 mm 0.00 in0.0 mm 0.12 in3.0 mm
02:33 PM 60.3°F15.7°C 56.3°F13.5°C 87% 4.5 mph NW7.2 kmh NW 15.9 mph25.6 kmh 29.77 in1008.1 mb 0.00 in0.0 mm 0.00 in0.0 mm 0.12 in3.0 mm
02:28 PM 60.1°F15.6°C 56.5°F13.6°C 88% 4.3 mph NW6.9 kmh NW 10.5 mph16.9 kmh 29.77 in1008.1 mb 0.00 in0.0 mm 0.00 in0.0 mm 0.12 in3.0 mm
02:23 PM 59.5°F15.3°C 55.9°F13.3°C 88% 6.9 mph 11.1 kmh 12.8 mph20.6 kmh 29.77 in1008.1 mb 0.00 in0.0 mm 0.00 in0.0 mm 0.12 in3.0 mm
02:18 PM 59.5°F15.3°C 56.3°F13.5°C 89% 5.6 mph WNW9.0 kmh WNW 11.6 mph18.7 kmh 29.77 in1008.1 mb 0.00 in0.0 mm 0.00 in0.0 mm 0.12 in3.0 mm
02:13 PM 58.8°F14.9°C 55.9°F13.3°C 90% 5.8 mph NNW9.3 kmh NNW 13.9 mph22.4 kmh 29.77 in1008.1 mb 0.00 in0.0 mm 0.00 in0.0 mm 0.12 in3.0 mm
02:08 PM 58.3°F14.6°C 55.4°F13.0°C 90% 5.6 mph NW9.0 kmh NW 12.8 mph20.6 kmh 29.77 in1008.1 mb 0.00 in0.0 mm 0.00 in0.0 mm 0.12 in3.0 mm
02:03 PM 57.7°F14.3°C 55.2°F12.9°C 91% 2.0 mph NNE3.2 kmh NNE 7.4 mph11.9 kmh 29.77 in1008.1 mb 0.01 in0.3 mm 0.00 in0.0 mm 0.12 in3.0 mm
01:58 PM 57.4°F14.1°C 54.9°F12.7°C 91% 5.4 mph NNW8.7 kmh NNW 13.9 mph22.4 kmh 29.77 in1008.1 mb 0.01 in0.3 mm 0.00 in0.0 mm 0.12 in3.0 mm
01:53 PM 57.4°F14.1°C 54.9°F12.7°C 91% 4.3 mph N6.9 kmh N 10.5 mph16.9 kmh 29.77 in1008.1 mb 0.01 in0.3 mm 0.00 in0.0 mm 0.12 in3.0 mm
01:48 PM 57.4°F14.1°C 54.9°F12.7°C 91% 7.4 mph NNW11.9 kmh NNW 11.6 mph18.7 kmh 29.77 in1008.1 mb 0.02 in0.5 mm 0.00 in0.0 mm 0.12 in3.0 mm
01:43 PM 56.8°F13.8°C 54.3°F12.4°C 91% 5.4 mph NNW8.7 kmh NNW 11.6 mph18.7 kmh 29.77 in1008.1 mb 0.02 in0.5 mm 0.00 in0.0 mm 0.12 in3.0 mm
01:38 PM 57.0°F13.9°C 54.5°F12.5°C 91% 5.8 mph NW9.3 kmh NW 12.8 mph20.6 kmh 29.77 in1008.1 mb 0.02 in0.5 mm 0.00 in0.0 mm 0.12 in3.0 mm
01:33 PM 57.0°F13.9°C 54.5°F12.5°C 91% 6.3 mph 10.1 kmh 12.8 mph20.6 kmh 29.77 in1008.1 mb 0.02 in0.5 mm 0.00 in0.0 mm 0.12 in3.0 mm
01:28 PM 57.0°F13.9°C 54.7°F12.6°C 92% 5.4 mph WNW8.7 kmh WNW 12.8 mph20.6 kmh 29.78 in1008.5 mb 0.02 in0.5 mm 0.00 in0.0 mm 0.12 in3.0 mm
01:23 PM 56.7°F13.7°C 54.1°F12.3°C 91% 4.9 mph N7.9 kmh N 13.9 mph22.4 kmh 29.77 in1008.1 mb 0.02 in0.5 mm 0.00 in0.0 mm 0.12 in3.0 mm
01:18 PM 56.7°F13.7°C 54.1°F12.3°C 91% 5.1 mph NW8.2 kmh NW 12.8 mph20.6 kmh 29.77 in1008.1 mb 0.02 in0.5 mm 0.00 in0.0 mm 0.12 in3.0 mm
01:13 PM 56.5°F13.6°C 54.0°F12.2°C 91% 5.8 mph N9.3 kmh N 9.6 mph15.4 kmh 29.78 in1008.5 mb 0.02 in0.5 mm 0.00 in0.0 mm 0.12 in3.0 mm
01:08 PM 56.5°F13.6°C 53.6°F12.0°C 90% 4.9 mph NNE7.9 kmh NNE 11.6 mph18.7 kmh 29.78 in1008.5 mb 0.02 in0.5 mm 0.12 in3.0 mm 0.12 in3.0 mm
01:03 PM 56.7°F13.7°C 53.8°F12.1°C 90% 4.5 mph NW7.2 kmh NW 9.6 mph15.4 kmh 29.77 in1008.1 mb 0.01 in0.3 mm 0.00 in0.0 mm 0.11 in2.8 mm
12:58 PM 57.0°F13.9°C 53.8°F12.1°C 89% 4.9 mph NNW7.9 kmh NNW 9.6 mph15.4 kmh 29.78 in1008.5 mb 0.01 in0.3 mm 0.00 in0.0 mm 0.11 in2.8 mm
12:53 PM 57.4°F14.1°C 54.1°F12.3°C 89% 2.9 mph NNW4.7 kmh NNW 13.9 mph22.4 kmh 29.77 in1008.1 mb 0.01 in0.3 mm 0.12 in3.0 mm 0.11 in2.8 mm
12:48 PM 57.6°F14.2°C 54.0°F12.2°C 88% 8.5 mph NNW13.7 kmh NNW 12.8 mph20.6 kmh 29.77 in1008.1 mb 0.00 in0.0 mm 0.00 in0.0 mm 0.10 in2.5 mm
12:43 PM 57.9°F14.4°C 54.3°F12.4°C 88% 5.4 mph NW8.7 kmh NW 9.6 mph15.4 kmh 29.77 in1008.1 mb 0.00 in0.0 mm 0.00 in0.0 mm 0.10 in2.5 mm
12:38 PM 58.1°F14.5°C 54.5°F12.5°C 88% 4.3 mph WNW6.9 kmh WNW 11.6 mph18.7 kmh 29.76 in1007.8 mb 0.00 in0.0 mm 0.00 in0.0 mm 0.10 in2.5 mm
12:33 PM 58.5°F14.7°C 54.9°F12.7°C 88% 4.9 mph WNW7.9 kmh WNW 10.5 mph16.9 kmh 29.77 in1008.1 mb 0.00 in0.0 mm 0.00 in0.0 mm 0.10 in2.5 mm
12:28 PM 58.6°F14.8°C 55.0°F12.8°C 88% 5.8 mph NNW9.3 kmh NNW 12.8 mph20.6 kmh 29.77 in1008.1 mb 0.00 in0.0 mm 0.00 in0.0 mm 0.10 in2.5 mm
12:23 PM 58.6°F14.8°C 55.0°F12.8°C 88% 4.9 mph NW7.9 kmh NW 11.6 mph18.7 kmh 29.77 in1008.1 mb 0.00 in0.0 mm 0.00 in0.0 mm 0.10 in2.5 mm
12:18 PM 58.8°F14.9°C 55.0°F12.8°C 87% 6.9 mph NW11.1 kmh NW 10.5 mph16.9 kmh 29.77 in1008.1 mb 0.00 in0.0 mm 0.00 in0.0 mm 0.10 in2.5 mm
12:13 PM 59.2°F15.1°C 55.6°F13.1°C 88% 4.9 mph NW7.9 kmh NW 10.5 mph16.9 kmh 29.77 in1008.1 mb 0.00 in0.0 mm 0.00 in0.0 mm 0.10 in2.5 mm
12:08 PM 59.2°F15.1°C 55.6°F13.1°C 88% 5.6 mph W9.0 kmh W 11.6 mph18.7 kmh 29.77 in1008.1 mb 0.00 in0.0 mm 0.00 in0.0 mm 0.10 in2.5 mm
12:03 PM 59.2°F15.1°C 55.9°F13.3°C 89% 4.7 mph N7.6 kmh N 10.5 mph16.9 kmh 29.77 in1008.1 mb 0.00 in0.0 mm 0.00 in0.0 mm 0.10 in2.5 mm
11:58 AM 58.8°F14.9°C 55.6°F13.1°C 89% 7.2 mph NW11.6 kmh NW 12.8 mph20.6 kmh 29.77 in1008.1 mb 0.00 in0.0 mm 0.00 in0.0 mm 0.10 in2.5 mm
11:53 AM 58.6°F14.8°C 55.8°F13.2°C 90% 3.4 mph 5.5 kmh 12.8 mph20.6 kmh 29.77 in1008.1 mb 0.00 in0.0 mm 0.00 in0.0 mm 0.10 in2.5 mm
11:48 AM 58.5°F14.7°C 55.6°F13.1°C 90% 7.6 mph NW12.2 kmh NW 12.8 mph20.6 kmh 29.77 in1008.1 mb 0.00 in0.0 mm 0.00 in0.0 mm 0.10 in2.5 mm
11:43 AM 58.3°F14.6°C 55.4°F13.0°C 90% 4.9 mph NNW7.9 kmh NNW 12.8 mph20.6 kmh 29.77 in1008.1 mb 0.00 in0.0 mm 0.00 in0.0 mm 0.10 in2.5 mm
11:38 AM 57.9°F14.4°C 55.0°F12.8°C 90% 5.4 mph N8.7 kmh N 11.6 mph18.7 kmh 29.77 in1008.1 mb 0.00 in0.0 mm 0.00 in0.0 mm 0.10 in2.5 mm
11:33 AM 57.9°F14.4°C 55.0°F12.8°C 90% 6.9 mph NW11.1 kmh NW 17.0 mph27.4 kmh 29.77 in1008.1 mb 0.00 in0.0 mm 0.00 in0.0 mm 0.10 in2.5 mm
11:28 AM 58.5°F14.7°C 55.6°F13.1°C 90% 3.8 mph NW6.1 kmh NW 8.5 mph13.7 kmh 29.77 in1008.1 mb 0.00 in0.0 mm 0.00 in0.0 mm 0.10 in2.5 mm
11:23 AM 58.3°F14.6°C 55.6°F13.1°C 91% 3.6 mph W5.8 kmh W 10.5 mph16.9 kmh 29.77 in1008.1 mb 0.00 in0.0 mm 0.00 in0.0 mm 0.10 in2.5 mm
11:18 AM 57.7°F14.3°C 55.2°F12.9°C 91% 3.8 mph WNW6.1 kmh WNW 7.4 mph11.9 kmh 29.78 in1008.5 mb 0.00 in0.0 mm 0.00 in0.0 mm 0.10 in2.5 mm
11:13 AM 57.2°F14.0°C 54.7°F12.6°C 91% 5.4 mph NW8.7 kmh NW 11.6 mph18.7 kmh 29.78 in1008.5 mb 0.01 in0.3 mm 0.00 in0.0 mm 0.10 in2.5 mm
11:08 AM 57.0°F13.9°C 54.5°F12.5°C 91% 6.7 mph N10.8 kmh N 15.9 mph25.6 kmh 29.78 in1008.5 mb 0.01 in0.3 mm 0.00 in0.0 mm 0.10 in2.5 mm
11:03 AM 57.4°F14.1°C 54.9°F12.7°C 91% 3.8 mph N6.1 kmh N 10.5 mph16.9 kmh 29.78 in1008.5 mb 0.01 in0.3 mm 0.00 in0.0 mm 0.10 in2.5 mm
10:58 AM 57.2°F14.0°C 54.9°F12.7°C 92% 5.6 mph NNW9.0 kmh NNW 10.5 mph16.9 kmh 29.78 in1008.5 mb 0.01 in0.3 mm 0.00 in0.0 mm 0.10 in2.5 mm
10:53 AM 57.0°F13.9°C 54.7°F12.6°C 92% 3.4 mph NW5.5 kmh NW 9.6 mph15.4 kmh 29.78 in1008.5 mb 0.01 in0.3 mm 0.00 in0.0 mm 0.10 in2.5 mm
10:48 AM 56.8°F13.8°C 54.5°F12.5°C 92% 4.7 mph WNW7.6 kmh WNW 9.6 mph15.4 kmh 29.78 in1008.5 mb 0.01 in0.3 mm 0.00 in0.0 mm 0.10 in2.5 mm
10:43 AM 56.8°F13.8°C 54.5°F12.5°C 92% 6.7 mph NNE10.8 kmh NNE 11.6 mph18.7 kmh 29.78 in1008.5 mb 0.01 in0.3 mm 0.00 in0.0 mm 0.10 in2.5 mm
10:38 AM 56.8°F13.8°C 54.5°F12.5°C 92% 5.1 mph NE8.2 kmh NE 11.6 mph18.7 kmh 29.78 in1008.5 mb 0.01 in0.3 mm 0.00 in0.0 mm 0.10 in2.5 mm
10:33 AM 56.8°F13.8°C 54.5°F12.5°C 92% 4.0 mph 6.4 kmh 8.5 mph13.7 kmh 29.78 in1008.5 mb 0.01 in0.3 mm 0.00 in0.0 mm 0.10 in2.5 mm
10:28 AM 56.5°F13.6°C 54.1°F12.3°C 92% 3.1 mph NW5.0 kmh NW 8.5 mph13.7 kmh 29.78 in1008.5 mb 0.01 in0.3 mm 0.00 in0.0 mm 0.10 in2.5 mm
10:23 AM 56.5°F13.6°C 54.1°F12.3°C 92% 5.1 mph NW8.2 kmh NW 10.5 mph16.9 kmh 29.78 in1008.5 mb 0.02 in0.5 mm 0.00 in0.0 mm 0.10 in2.5 mm
10:18 AM 56.3°F13.5°C 54.0°F12.2°C 92% 3.8 mph NW6.1 kmh NW 10.5 mph16.9 kmh 29.78 in1008.5 mb 0.02 in0.5 mm 0.12 in3.0 mm 0.10 in2.5 mm
10:13 AM 56.3°F13.5°C 54.0°F12.2°C 92% 4.7 mph NW7.6 kmh NW 10.5 mph16.9 kmh 29.78 in1008.5 mb 0.01 in0.3 mm 0.00 in0.0 mm 0.09 in2.3 mm
10:08 AM 56.5°F13.6°C 54.1°F12.3°C 92% 2.5 mph W4.0 kmh W 10.5 mph16.9 kmh 29.78 in1008.5 mb 0.02 in0.5 mm 0.00 in0.0 mm 0.09 in2.3 mm
10:03 AM 56.1°F13.4°C 53.8°F12.1°C 92% 3.4 mph NNW5.5 kmh NNW 7.4 mph11.9 kmh 29.78 in1008.5 mb 0.02 in0.5 mm 0.00 in0.0 mm 0.09 in2.3 mm
09:58 AM 55.9°F13.3°C 53.6°F12.0°C 92% 2.7 mph NNW4.3 kmh NNW 9.6 mph15.4 kmh 29.78 in1008.5 mb 0.02 in0.5 mm 0.00 in0.0 mm 0.09 in2.3 mm
09:53 AM 55.8°F13.2°C 53.4°F11.9°C 92% 3.1 mph 5.0 kmh 7.4 mph11.9 kmh 29.78 in1008.5 mb 0.02 in0.5 mm 0.00 in0.0 mm 0.09 in2.3 mm
09:48 AM 55.8°F13.2°C 53.4°F11.9°C 92% 3.8 mph NW6.1 kmh NW 8.5 mph13.7 kmh 29.78 in1008.5 mb 0.02 in0.5 mm 0.00 in0.0 mm 0.09 in2.3 mm
09:43 AM 55.8°F13.2°C 53.4°F11.9°C 92% 2.9 mph N4.7 kmh N 9.6 mph15.4 kmh 29.78 in1008.5 mb 0.02 in0.5 mm 0.00 in0.0 mm 0.09 in2.3 mm
09:38 AM 55.8°F13.2°C 53.4°F11.9°C 92% 1.8 mph NW2.9 kmh NW 6.3 mph10.1 kmh 29.79 in1008.8 mb 0.02 in0.5 mm 0.00 in0.0 mm 0.09 in2.3 mm
09:33 AM 55.9°F13.3°C 53.6°F12.0°C 92% 3.1 mph N5.0 kmh N 8.5 mph13.7 kmh 29.78 in1008.5 mb 0.02 in0.5 mm 0.00 in0.0 mm 0.09 in2.3 mm
09:28 AM 55.8°F13.2°C 53.4°F11.9°C 92% 3.8 mph WNW6.1 kmh WNW 8.5 mph13.7 kmh 29.78 in1008.5 mb 0.02 in0.5 mm 0.12 in3.0 mm 0.09 in2.3 mm
09:23 AM 55.9°F13.3°C 53.6°F12.0°C 92% 5.1 mph NNW8.2 kmh NNW 9.6 mph15.4 kmh 29.78 in1008.5 mb 0.01 in0.3 mm 0.00 in0.0 mm 0.09 in2.3 mm
09:18 AM 55.9°F13.3°C 53.6°F12.0°C 92% 3.6 mph NNW5.8 kmh NNW 9.6 mph15.4 kmh 29.78 in1008.5 mb 0.01 in0.3 mm 0.00 in0.0 mm 0.09 in2.3 mm
09:13 AM 55.9°F13.3°C 53.6°F12.0°C 92% 3.8 mph NNW6.1 kmh NNW 9.6 mph15.4 kmh 29.78 in1008.5 mb 0.01 in0.3 mm 0.12 in3.0 mm 0.09 in2.3 mm
09:08 AM 56.1°F13.4°C 53.8°F12.1°C 92% 5.8 mph N9.3 kmh N 8.5 mph13.7 kmh 29.78 in1008.5 mb 0.00 in0.0 mm 0.00 in0.0 mm 0.08 in2.0 mm
09:03 AM 56.1°F13.4°C 53.8°F12.1°C 92% 3.8 mph N6.1 kmh N 7.4 mph11.9 kmh 29.78 in1008.5 mb 0.00 in0.0 mm 0.00 in0.0 mm 0.08 in2.0 mm
08:58 AM 56.5°F13.6°C 54.1°F12.3°C 92% 3.4 mph N5.5 kmh N 8.5 mph13.7 kmh 29.78 in1008.5 mb 0.00 in0.0 mm 0.00 in0.0 mm 0.08 in2.0 mm
08:53 AM 56.5°F13.6°C 54.1°F12.3°C 92% 3.8 mph NNW6.1 kmh NNW 7.4 mph11.9 kmh 29.78 in1008.5 mb 0.00 in0.0 mm 0.00 in0.0 mm 0.08 in2.0 mm
08:48 AM 56.3°F13.5°C 54.0°F12.2°C 92% 4.5 mph NNW7.2 kmh NNW 8.5 mph13.7 kmh 29.77 in1008.1 mb 0.00 in0.0 mm 0.00 in0.0 mm 0.08 in2.0 mm
08:43 AM 56.3°F13.5°C 54.0°F12.2°C 92% 3.1 mph N5.0 kmh N 6.3 mph10.1 kmh 29.78 in1008.5 mb 0.00 in0.0 mm 0.00 in0.0 mm 0.08 in2.0 mm
08:38 AM 56.3°F13.5°C 54.3°F12.4°C 93% 2.9 mph NNW4.7 kmh NNW 8.5 mph13.7 kmh 29.77 in1008.1 mb 0.00 in0.0 mm 0.00 in0.0 mm 0.08 in2.0 mm
08:33 AM 56.1°F13.4°C 53.8°F12.1°C 92% 3.6 mph N5.8 kmh N 5.4 mph8.7 kmh 29.77 in1008.1 mb 0.00 in0.0 mm 0.00 in0.0 mm 0.08 in2.0 mm
08:28 AM 56.1°F13.4°C 54.1°F12.3°C 93% 3.6 mph NNW5.8 kmh NNW 10.5 mph16.9 kmh 29.77 in1008.1 mb 0.00 in0.0 mm 0.00 in0.0 mm 0.08 in2.0 mm
08:23 AM 55.9°F13.3°C 54.0°F12.2°C 93% 3.8 mph 6.1 kmh 7.4 mph11.9 kmh 29.78 in1008.5 mb 0.00 in0.0 mm 0.00 in0.0 mm 0.08 in2.0 mm
08:18 AM 55.9°F13.3°C 54.0°F12.2°C 93% 4.5 mph NW7.2 kmh NW 8.5 mph13.7 kmh 29.77 in1008.1 mb 0.00 in0.0 mm 0.00 in0.0 mm 0.08 in2.0 mm
08:13 AM 55.9°F13.3°C 54.0°F12.2°C 93% 4.9 mph N7.9 kmh N 10.5 mph16.9 kmh 29.78 in1008.5 mb 0.00 in0.0 mm 0.00 in0.0 mm 0.08 in2.0 mm
08:08 AM 55.9°F13.3°C 54.0°F12.2°C 93% 3.1 mph N5.0 kmh N 8.5 mph13.7 kmh 29.77 in1008.1 mb 0.00 in0.0 mm 0.00 in0.0 mm 0.08 in2.0 mm
08:03 AM 55.8°F13.2°C 53.8°F12.1°C 93% 4.5 mph N7.2 kmh N 8.5 mph13.7 kmh 29.77 in1008.1 mb 0.00 in0.0 mm 0.00 in0.0 mm 0.08 in2.0 mm
07:58 AM 55.8°F13.2°C 53.8°F12.1°C 93% 3.4 mph N5.5 kmh N 7.4 mph11.9 kmh 29.77 in1008.1 mb 0.00 in0.0 mm 0.00 in0.0 mm 0.08 in2.0 mm
07:53 AM 55.6°F13.1°C 53.6°F12.0°C 93% 2.7 mph N4.3 kmh N 7.4 mph11.9 kmh 29.77 in1008.1 mb 0.00 in0.0 mm 0.00 in0.0 mm 0.08 in2.0 mm
07:48 AM 55.8°F13.2°C 53.8°F12.1°C 93% 4.3 mph NW6.9 kmh NW 7.4 mph11.9 kmh 29.77 in1008.1 mb 0.00 in0.0 mm 0.00 in0.0 mm 0.08 in2.0 mm
07:43 AM 55.6°F13.1°C 53.6°F12.0°C 93% 4.0 mph NW6.4 kmh NW 7.4 mph11.9 kmh 29.77 in1008.1 mb 0.00 in0.0 mm 0.00 in0.0 mm 0.08 in2.0 mm
07:38 AM 55.6°F13.1°C 53.6°F12.0°C 93% 4.7 mph NW7.6 kmh NW 8.5 mph13.7 kmh 29.77 in1008.1 mb 0.00 in0.0 mm 0.00 in0.0 mm 0.08 in2.0 mm
07:33 AM 55.4°F13.0°C 53.4°F11.9°C 93% 2.2 mph N3.5 kmh N 5.4 mph8.7 kmh 29.76 in1007.8 mb 0.00 in0.0 mm 0.00 in0.0 mm 0.08 in2.0 mm
07:28 AM 55.2°F12.9°C 53.2°F11.8°C 93% 2.5 mph 4.0 kmh 5.4 mph8.7 kmh 29.76 in1007.8 mb 0.00 in0.0 mm 0.00 in0.0 mm 0.08 in2.0 mm
07:23 AM 55.2°F12.9°C 53.2°F11.8°C 93% 2.9 mph NW4.7 kmh NW 7.4 mph11.9 kmh 29.76 in1007.8 mb 0.00 in0.0 mm 0.00 in0.0 mm 0.08 in2.0 mm
07:18 AM 55.2°F12.9°C 53.2°F11.8°C 93% 2.2 mph NNW3.5 kmh NNW 5.4 mph8.7 kmh 29.76 in1007.8 mb 0.00 in0.0 mm 0.00 in0.0 mm 0.08 in2.0 mm
07:13 AM 55.2°F12.9°C 53.2°F11.8°C 93% 2.2 mph WNW3.5 kmh WNW 4.3 mph6.9 kmh 29.76 in1007.8 mb 0.00 in0.0 mm 0.00 in0.0 mm 0.08 in2.0 mm
07:08 AM 55.2°F12.9°C 53.2°F11.8°C 93% 3.1 mph NW5.0 kmh NW 6.3 mph10.1 kmh 29.76 in1007.8 mb 0.00 in0.0 mm 0.00 in0.0 mm 0.08 in2.0 mm
07:03 AM 55.0°F12.8°C 53.1°F11.7°C 93% 3.1 mph NW5.0 kmh NW 6.3 mph10.1 kmh 29.76 in1007.8 mb 0.00 in0.0 mm 0.00 in0.0 mm 0.08 in2.0 mm
06:58 AM 55.0°F12.8°C 53.1°F11.7°C 93% 2.5 mph NW4.0 kmh NW 4.3 mph6.9 kmh 29.76 in1007.8 mb 0.00 in0.0 mm 0.00 in0.0 mm 0.08 in2.0 mm
06:53 AM 55.0°F12.8°C 53.1°F11.7°C 93% 1.6 mph NW2.6 kmh NW 3.1 mph5.0 kmh 29.76 in1007.8 mb 0.00 in0.0 mm 0.00 in0.0 mm 0.08 in2.0 mm
06:48 AM 54.9°F12.7°C 52.9°F11.6°C 93% 1.6 mph WNW2.6 kmh WNW 5.4 mph8.7 kmh 29.76 in1007.8 mb 0.00 in0.0 mm 0.00 in0.0 mm 0.08 in2.0 mm
06:43 AM 54.9°F12.7°C 52.9°F11.6°C 93% 1.8 mph WNW2.9 kmh WNW 6.3 mph10.1 kmh 29.75 in1007.5 mb 0.00 in0.0 mm 0.00 in0.0 mm 0.08 in2.0 mm
06:38 AM 54.9°F12.7°C 52.9°F11.6°C 93% 2.2 mph N3.5 kmh N 7.4 mph11.9 kmh 29.75 in1007.5 mb 0.00 in0.0 mm 0.00 in0.0 mm 0.08 in2.0 mm
06:33 AM 54.9°F12.7°C 52.9°F11.6°C 93% 2.5 mph NW4.0 kmh NW 7.4 mph11.9 kmh 29.75 in1007.5 mb 0.00 in0.0 mm 0.00 in0.0 mm 0.08 in2.0 mm
06:28 AM 54.9°F12.7°C 52.9°F11.6°C 93% 3.1 mph NW5.0 kmh NW 5.4 mph8.7 kmh 29.75 in1007.5 mb 0.00 in0.0 mm 0.00 in0.0 mm 0.08 in2.0 mm
06:23 AM 54.9°F12.7°C 52.5°F11.4°C 92% 3.6 mph NW5.8 kmh NW 5.4 mph8.7 kmh 29.75 in1007.5 mb 0.00 in0.0 mm 0.00 in0.0 mm 0.08 in2.0 mm
06:18 AM 54.9°F12.7°C 52.5°F11.4°C 92% 2.0 mph NNW3.2 kmh NNW 7.4 mph11.9 kmh 29.75 in1007.5 mb 0.00 in0.0 mm 0.00 in0.0 mm 0.08 in2.0 mm
06:13 AM 54.9°F12.7°C 52.5°F11.4°C 92% 3.1 mph NW5.0 kmh NW 5.4 mph8.7 kmh 29.75 in1007.5 mb 0.00 in0.0 mm 0.00 in0.0 mm 0.08 in2.0 mm
06:08 AM 54.9°F12.7°C 52.5°F11.4°C 92% 3.6 mph NW5.8 kmh NW 9.6 mph15.4 kmh 29.75 in1007.5 mb 0.00 in0.0 mm 0.00 in0.0 mm 0.08 in2.0 mm
06:03 AM 54.9°F12.7°C 52.5°F11.4°C 92% 2.5 mph NNW4.0 kmh NNW 7.4 mph11.9 kmh 29.74 in1007.1 mb 0.00 in0.0 mm 0.00 in0.0 mm 0.08 in2.0 mm
05:58 AM 54.9°F12.7°C 52.5°F11.4°C 92% 3.4 mph NNW5.5 kmh NNW 7.4 mph11.9 kmh 29.74 in1007.1 mb 0.00 in0.0 mm 0.00 in0.0 mm 0.08 in2.0 mm
05:53 AM 54.9°F12.7°C 52.5°F11.4°C 92% 4.9 mph NW7.9 kmh NW 7.4 mph11.9 kmh 29.75 in1007.5 mb 0.00 in0.0 mm 0.00 in0.0 mm 0.08 in2.0 mm
05:48 AM 54.9°F12.7°C 52.5°F11.4°C 92% 4.0 mph NW6.4 kmh NW 8.5 mph13.7 kmh 29.75 in1007.5 mb 0.00 in0.0 mm 0.00 in0.0 mm 0.08 in2.0 mm
05:43 AM 54.9°F12.7°C 52.5°F11.4°C 92% 4.5 mph NW7.2 kmh NW 8.5 mph13.7 kmh 29.75 in1007.5 mb 0.00 in0.0 mm 0.00 in0.0 mm 0.08 in2.0 mm
05:38 AM 54.9°F12.7°C 52.5°F11.4°C 92% 2.7 mph NW4.3 kmh NW 6.3 mph10.1 kmh 29.75 in1007.5 mb 0.00 in0.0 mm 0.00 in0.0 mm 0.08 in2.0 mm
05:33 AM 54.9°F12.7°C 52.5°F11.4°C 92% 2.2 mph NNW3.5 kmh NNW 5.4 mph8.7 kmh 29.75 in1007.5 mb 0.00 in0.0 mm 0.00 in0.0 mm 0.08 in2.0 mm
05:28 AM 54.9°F12.7°C 52.5°F11.4°C 92% 2.5 mph N4.0 kmh N 6.3 mph10.1 kmh 29.75 in1007.5 mb 0.00 in0.0 mm 0.00 in0.0 mm 0.08 in2.0 mm
05:23 AM 54.9°F12.7°C 52.5°F11.4°C 92% 2.7 mph NW4.3 kmh NW 7.4 mph11.9 kmh 29.75 in1007.5 mb 0.00 in0.0 mm 0.00 in0.0 mm 0.08 in2.0 mm
05:18 AM 54.9°F12.7°C 52.5°F11.4°C 92% 2.9 mph NW4.7 kmh NW 6.3 mph10.1 kmh 29.75 in1007.5 mb 0.00 in0.0 mm 0.00 in0.0 mm 0.08 in2.0 mm
05:13 AM 54.9°F12.7°C 52.5°F11.4°C 92% 2.2 mph NW3.5 kmh NW 5.4 mph8.7 kmh 29.74 in1007.1 mb 0.00 in0.0 mm 0.00 in0.0 mm 0.08 in2.0 mm
05:08 AM 54.7°F12.6°C 52.3°F11.3°C 92% 2.2 mph NW3.5 kmh NW 4.3 mph6.9 kmh 29.74 in1007.1 mb 0.00 in0.0 mm 0.00 in0.0 mm 0.08 in2.0 mm
05:03 AM 54.7°F12.6°C 52.3°F11.3°C 92% 2.0 mph NW3.2 kmh NW 3.1 mph5.0 kmh 29.75 in1007.5 mb 0.00 in0.0 mm 0.00 in0.0 mm 0.08 in2.0 mm
04:58 AM 54.7°F12.6°C 52.3°F11.3°C 92% 1.6 mph NW2.6 kmh NW 3.1 mph5.0 kmh 29.74 in1007.1 mb 0.00 in0.0 mm 0.00 in0.0 mm 0.08 in2.0 mm
04:53 AM 54.7°F12.6°C 52.2°F11.2°C 91% 2.2 mph NW3.5 kmh NW 4.3 mph6.9 kmh 29.74 in1007.1 mb 0.00 in0.0 mm 0.00 in0.0 mm 0.08 in2.0 mm
04:48 AM 54.7°F12.6°C 52.3°F11.3°C 92% 1.1 mph NW1.8 kmh NW 4.3 mph6.9 kmh 29.74 in1007.1 mb 0.00 in0.0 mm 0.00 in0.0 mm 0.08 in2.0 mm
04:43 AM 54.7°F12.6°C 52.2°F11.2°C 91% 1.8 mph NW2.9 kmh NW 5.4 mph8.7 kmh 29.74 in1007.1 mb 0.04 in1.0 mm 0.00 in0.0 mm 0.08 in2.0 mm
04:38 AM 54.7°F12.6°C 52.2°F11.2°C 91% 1.1 mph NW1.8 kmh NW 2.0 mph3.2 kmh 29.74 in1007.1 mb 0.06 in1.5 mm 0.00 in0.0 mm 0.08 in2.0 mm
04:33 AM 54.7°F12.6°C 52.2°F11.2°C 91% 1.8 mph NW2.9 kmh NW 4.3 mph6.9 kmh 29.74 in1007.1 mb 0.08 in2.0 mm 0.00 in0.0 mm 0.08 in2.0 mm
04:28 AM 54.7°F12.6°C 52.2°F11.2°C 91% 2.2 mph WNW3.5 kmh WNW 6.3 mph10.1 kmh 29.74 in1007.1 mb 0.08 in2.0 mm 0.00 in0.0 mm 0.08 in2.0 mm
04:23 AM 54.9°F12.7°C 52.3°F11.3°C 91% 2.2 mph NW3.5 kmh NW 6.3 mph10.1 kmh 29.74 in1007.1 mb 0.08 in2.0 mm 0.00 in0.0 mm 0.08 in2.0 mm
04:18 AM 54.9°F12.7°C 52.3°F11.3°C 91% 2.9 mph NW4.7 kmh NW 6.3 mph10.1 kmh 29.74 in1007.1 mb 0.08 in2.0 mm 0.00 in0.0 mm 0.08 in2.0 mm
04:13 AM 54.9°F12.7°C 52.0°F11.1°C 90% 3.4 mph NW5.5 kmh NW 5.4 mph8.7 kmh 29.74 in1007.1 mb 0.08 in2.0 mm 0.00 in0.0 mm 0.08 in2.0 mm
04:08 AM 54.9°F12.7°C 52.0°F11.1°C 90% 2.9 mph 4.7 kmh 6.3 mph10.1 kmh 29.74 in1007.1 mb 0.08 in2.0 mm 0.00 in0.0 mm 0.08 in2.0 mm
04:03 AM 54.9°F12.7°C 52.0°F11.1°C 90% 3.6 mph NNW5.8 kmh NNW 6.3 mph10.1 kmh 29.74 in1007.1 mb 0.08 in2.0 mm 0.00 in0.0 mm 0.08 in2.0 mm
03:58 AM 54.9°F12.7°C 52.0°F11.1°C 90% 3.4 mph WNW5.5 kmh WNW 5.4 mph8.7 kmh 29.74 in1007.1 mb 0.08 in2.0 mm 0.00 in0.0 mm 0.08 in2.0 mm
03:53 AM 54.9°F12.7°C 51.6°F10.9°C 89% 2.2 mph NNW3.5 kmh NNW 4.3 mph6.9 kmh 29.75 in1007.5 mb 0.08 in2.0 mm 0.00 in0.0 mm 0.08 in2.0 mm
03:48 AM 55.0°F12.8°C 51.8°F11.0°C 89% 2.2 mph NNW3.5 kmh NNW 4.3 mph6.9 kmh 29.75 in1007.5 mb 0.08 in2.0 mm 0.48 in12.2 mm 0.08 in2.0 mm
03:43 AM 55.0°F12.8°C 51.8°F11.0°C 89% 2.0 mph 3.2 kmh 4.3 mph6.9 kmh 29.75 in1007.5 mb 0.04 in1.0 mm 0.24 in6.1 mm 0.04 in1.0 mm
03:38 AM 54.9°F12.7°C 51.4°F10.8°C 88% 2.0 mph NNE3.2 kmh NNE 3.1 mph5.0 kmh 29.75 in1007.5 mb 0.02 in0.5 mm 0.24 in6.1 mm 0.02 in0.5 mm
03:33 AM 54.9°F12.7°C 51.4°F10.8°C 88% 2.0 mph NE3.2 kmh NE 4.3 mph6.9 kmh 29.75 in1007.5 mb 0.00 in0.0 mm 0.00 in0.0 mm 0.00 in0.0 mm
03:28 AM 54.9°F12.7°C 51.4°F10.8°C 88% 1.6 mph NNW2.6 kmh NNW 3.1 mph5.0 kmh 29.75 in1007.5 mb 0.00 in0.0 mm 0.00 in0.0 mm 0.00 in0.0 mm
03:23 AM 54.9°F12.7°C 51.4°F10.8°C 88% 1.8 mph NNW2.9 kmh NNW 4.3 mph6.9 kmh 29.75 in1007.5 mb 0.00 in0.0 mm 0.00 in0.0 mm 0.00 in0.0 mm
03:18 AM 54.9°F12.7°C 51.4°F10.8°C 88% 1.8 mph N2.9 kmh N 3.1 mph5.0 kmh 29.75 in1007.5 mb 0.00 in0.0 mm 0.00 in0.0 mm 0.00 in0.0 mm
03:13 AM 54.9°F12.7°C 51.1°F10.6°C 87% 1.8 mph N2.9 kmh N 4.3 mph6.9 kmh 29.75 in1007.5 mb 0.00 in0.0 mm 0.00 in0.0 mm 0.00 in0.0 mm
03:08 AM 54.7°F12.6°C 50.9°F10.5°C 87% 2.2 mph WNW3.5 kmh WNW 6.3 mph10.1 kmh 29.75 in1007.5 mb 0.00 in0.0 mm 0.00 in0.0 mm 0.00 in0.0 mm
03:03 AM 54.7°F12.6°C 50.9°F10.5°C 87% 1.3 mph NNW2.1 kmh NNW 3.1 mph5.0 kmh 29.75 in1007.5 mb 0.00 in0.0 mm 0.00 in0.0 mm 0.00 in0.0 mm
02:58 AM 54.7°F12.6°C 50.9°F10.5°C 87% 0.9 mph NNW1.4 kmh NNW 3.1 mph5.0 kmh 29.75 in1007.5 mb 0.00 in0.0 mm 0.00 in0.0 mm 0.00 in0.0 mm
02:53 AM 54.9°F12.7°C 51.1°F10.6°C 87% 1.6 mph NW2.6 kmh NW 3.1 mph5.0 kmh 29.75 in1007.5 mb 0.00 in0.0 mm 0.00 in0.0 mm 0.00 in0.0 mm
02:48 AM 54.7°F12.6°C 50.9°F10.5°C 87% 1.6 mph NNW2.6 kmh NNW 3.1 mph5.0 kmh 29.75 in1007.5 mb 0.00 in0.0 mm 0.00 in0.0 mm 0.00 in0.0 mm
02:43 AM 54.7°F12.6°C 50.9°F10.5°C 87% 0.9 mph NNW1.4 kmh NNW 2.0 mph3.2 kmh 29.75 in1007.5 mb 0.00 in0.0 mm 0.00 in0.0 mm 0.00 in0.0 mm
02:38 AM 54.7°F12.6°C 50.9°F10.5°C 87% 1.6 mph N2.6 kmh N 4.3 mph6.9 kmh 29.75 in1007.5 mb 0.00 in0.0 mm 0.00 in0.0 mm 0.00 in0.0 mm
02:33 AM 54.7°F12.6°C 50.9°F10.5°C 87% 1.8 mph NNW2.9 kmh NNW 4.3 mph6.9 kmh 29.75 in1007.5 mb 0.00 in0.0 mm 0.00 in0.0 mm 0.00 in0.0 mm
02:28 AM 54.7°F12.6°C 50.9°F10.5°C 87% 1.3 mph N2.1 kmh N 3.1 mph5.0 kmh 29.75 in1007.5 mb 0.00 in0.0 mm 0.00 in0.0 mm 0.00 in0.0 mm
02:23 AM 54.5°F12.5°C 50.7°F10.4°C 87% 2.0 mph NNW3.2 kmh NNW 3.1 mph5.0 kmh 29.75 in1007.5 mb 0.00 in0.0 mm 0.00 in0.0 mm 0.00 in0.0 mm
02:18 AM 54.5°F12.5°C 50.7°F10.4°C 87% 1.6 mph NNW2.6 kmh NNW 3.1 mph5.0 kmh 29.75 in1007.5 mb 0.00 in0.0 mm 0.00 in0.0 mm 0.00 in0.0 mm
02:13 AM 54.3°F12.4°C 50.5°F10.3°C 87% 1.1 mph NNW1.8 kmh NNW 2.0 mph3.2 kmh 29.75 in1007.5 mb 0.00 in0.0 mm 0.00 in0.0 mm 0.00 in0.0 mm
02:08 AM 54.3°F12.4°C 50.5°F10.3°C 87% 2.0 mph NNW3.2 kmh NNW 3.1 mph5.0 kmh 29.75 in1007.5 mb 0.00 in0.0 mm 0.00 in0.0 mm 0.00 in0.0 mm
02:03 AM 54.3°F12.4°C 50.5°F10.3°C 87% 1.3 mph NNW2.1 kmh NNW 4.3 mph6.9 kmh 29.75 in1007.5 mb 0.00 in0.0 mm 0.00 in0.0 mm 0.00 in0.0 mm
01:58 AM 54.1°F12.3°C 50.4°F10.2°C 87% 1.8 mph N2.9 kmh N 3.1 mph5.0 kmh 29.75 in1007.5 mb 0.00 in0.0 mm 0.00 in0.0 mm 0.00 in0.0 mm
01:53 AM 54.1°F12.3°C 50.4°F10.2°C 87% 2.0 mph 3.2 kmh 3.1 mph5.0 kmh 29.75 in1007.5 mb 0.00 in0.0 mm 0.00 in0.0 mm 0.00 in0.0 mm
01:48 AM 54.1°F12.3°C 50.4°F10.2°C 87% 1.6 mph N2.6 kmh N 3.1 mph5.0 kmh 29.75 in1007.5 mb 0.00 in0.0 mm 0.00 in0.0 mm 0.00 in0.0 mm
01:43 AM 54.1°F12.3°C 50.4°F10.2°C 87% 2.5 mph NW4.0 kmh NW 4.3 mph6.9 kmh 29.75 in1007.5 mb 0.00 in0.0 mm 0.00 in0.0 mm 0.00 in0.0 mm
01:38 AM 54.1°F12.3°C 50.4°F10.2°C 87% 1.6 mph N2.6 kmh N 3.1 mph5.0 kmh 29.75 in1007.5 mb 0.00 in0.0 mm 0.00 in0.0 mm 0.00 in0.0 mm
01:33 AM 54.1°F12.3°C 50.0°F10.0°C 86% 1.3 mph NNW2.1 kmh NNW 3.1 mph5.0 kmh 29.76 in1007.8 mb 0.00 in0.0 mm 0.00 in0.0 mm 0.00 in0.0 mm
01:28 AM 54.3°F12.4°C 50.2°F10.1°C 86% 1.6 mph 2.6 kmh 3.1 mph5.0 kmh 29.75 in1007.5 mb 0.00 in0.0 mm 0.00 in0.0 mm 0.00 in0.0 mm
01:23 AM 54.3°F12.4°C 50.2°F10.1°C 86% 2.0 mph N3.2 kmh N 3.1 mph5.0 kmh 29.75 in1007.5 mb 0.00 in0.0 mm 0.00 in0.0 mm 0.00 in0.0 mm
01:18 AM 54.3°F12.4°C 50.2°F10.1°C 86% 1.3 mph NNW2.1 kmh NNW 3.1 mph5.0 kmh 29.76 in1007.8 mb 0.00 in0.0 mm 0.00 in0.0 mm 0.00 in0.0 mm
01:13 AM 54.5°F12.5°C 50.4°F10.2°C 86% 1.8 mph NNW2.9 kmh NNW 3.1 mph5.0 kmh 29.76 in1007.8 mb 0.00 in0.0 mm 0.00 in0.0 mm 0.00 in0.0 mm
01:08 AM 54.5°F12.5°C 50.4°F10.2°C 86% 0.7 mph NNW1.1 kmh NNW 4.3 mph6.9 kmh 29.76 in1007.8 mb 0.00 in0.0 mm 0.00 in0.0 mm 0.00 in0.0 mm
01:03 AM 54.7°F12.6°C 50.5°F10.3°C 86% 2.5 mph NNW4.0 kmh NNW 4.3 mph6.9 kmh 29.76 in1007.8 mb 0.00 in0.0 mm 0.00 in0.0 mm 0.00 in0.0 mm
12:58 AM 54.7°F12.6°C 50.5°F10.3°C 86% 2.5 mph NW4.0 kmh NW 4.3 mph6.9 kmh 29.76 in1007.8 mb 0.00 in0.0 mm 0.00 in0.0 mm 0.00 in0.0 mm
12:53 AM 54.7°F12.6°C 50.5°F10.3°C 86% 1.3 mph N2.1 kmh N 3.1 mph5.0 kmh 29.76 in1007.8 mb 0.00 in0.0 mm 0.00 in0.0 mm 0.00 in0.0 mm
12:48 AM 54.7°F12.6°C 50.5°F10.3°C 86% 1.6 mph 2.6 kmh 4.3 mph6.9 kmh 29.76 in1007.8 mb 0.00 in0.0 mm 0.00 in0.0 mm 0.00 in0.0 mm
12:43 AM 54.9°F12.7°C 50.4°F10.2°C 85% 2.5 mph N4.0 kmh N 5.4 mph8.7 kmh 29.76 in1007.8 mb 0.00 in0.0 mm 0.00 in0.0 mm 0.00 in0.0 mm
12:38 AM 54.9°F12.7°C 50.4°F10.2°C 85% 1.6 mph N2.6 kmh N 4.3 mph6.9 kmh 29.76 in1007.8 mb 0.00 in0.0 mm 0.00 in0.0 mm 0.00 in0.0 mm
12:33 AM 54.9°F12.7°C 50.4°F10.2°C 85% 1.8 mph NNW2.9 kmh NNW 4.3 mph6.9 kmh 29.76 in1007.8 mb 0.00 in0.0 mm 0.00 in0.0 mm 0.00 in0.0 mm
12:28 AM 54.9°F12.7°C 50.4°F10.2°C 85% 2.2 mph NNW3.5 kmh NNW 4.3 mph6.9 kmh 29.76 in1007.8 mb 0.00 in0.0 mm 0.00 in0.0 mm 0.00 in0.0 mm
12:23 AM 55.0°F12.8°C 50.5°F10.3°C 85% 0.9 mph N1.4 kmh N 3.1 mph5.0 kmh 29.76 in1007.8 mb 0.00 in0.0 mm 0.00 in0.0 mm 0.00 in0.0 mm
12:18 AM 55.0°F12.8°C 50.5°F10.3°C 85% 1.8 mph 2.9 kmh 4.3 mph6.9 kmh 29.76 in1007.8 mb 0.00 in0.0 mm 0.00 in0.0 mm 0.00 in0.0 mm
12:13 AM 55.0°F12.8°C 50.4°F10.2°C 84% 2.2 mph NNW3.5 kmh NNW 4.3 mph6.9 kmh 29.76 in1007.8 mb 0.00 in0.0 mm 0.00 in0.0 mm 0.00 in0.0 mm
12:08 AM 55.0°F12.8°C 50.4°F10.2°C 84% 1.3 mph N2.1 kmh N 3.1 mph5.0 kmh 29.76 in1007.8 mb 0.00 in0.0 mm 0.00 in0.0 mm 0.00 in0.0 mm
12:03 AM 55.2°F12.9°C 50.5°F10.3°C 84% 2.2 mph N3.5 kmh N 4.3 mph6.9 kmh 29.76 in1007.8 mb 0.00 in0.0 mm 0.00 in0.0 mm 0.00 in0.0 mm